Geokinetics Inc (NASDAQOTH:GEOKQ)

CAPS Rating: 2 out of 5

The Company is a global provider of seismic data acquisition services in land, marsh and swamp and shallow water environments to the oil and natural gas industry.

Results 1 - 99 of 119 : 1 2 Next »
Top
Pick
Member Name Member
Rating
Start
Date
Call Time
Frame
Start
Price
Stock
Gain
Index
Gain
Score Commentary
artcorvelay < 20 5/14/2012 Outperform 1Y $1.32 -99.43% +53.19% -152.63 0 Comment
MoneyPlusSport < 20 1/25/2012 Underperform 5Y $2.00 -99.62% +56.74% +156.37 0 Comment
jdparksASI < 20 9/7/2011 Outperform 5Y $4.60 -99.84% +71.42% -171.26 0 Comment
GreenHillFarAway 28.96 8/22/2011 Outperform 5Y $3.99 -99.81% +81.81% -181.62 0 Comment
Rehydrogenated 32.45 3/29/2011 Outperform 5Y $8.68 -99.91% +56.92% -156.84 0 Comment
2011Fool 99.54 3/25/2011 Outperform NS $8.99 -99.92% +56.77% -156.68 0 Comment
LEGMAKER < 20 2/28/2011 Outperform 5Y $10.59 -99.93% +54.90% -154.83 0 Comment
hcve < 20 1/12/2011 Outperform 3W $9.41 -99.92% +60.63% -160.55 0 Comment
MagicMaggie < 20 12/7/2010 Outperform 5Y $9.35 -99.92% +66.00% -165.92 0 Comment
OberHund < 20 12/6/2010 Outperform 5Y $9.29 -99.92% +67.77% -167.69 0 Comment
tiger6667 < 20 12/1/2010 Outperform 5Y $8.51 -99.91% +71.16% -171.08 0 Comment
bullinnature 95.62 11/9/2009 11/8/2010 Outperform 3Y $12.72 -99.94% +90.59% -190.53 0 Comment
cletedinero < 20 10/18/2010 Outperform 5Y $7.31 -99.90% +74.21% -174.11 0 Comment
brilin 67.64 10/4/2010 Outperform 5Y $6.00 -99.88% +79.89% -179.76 0 Comment
smallandmidcap 96.92 8/10/2010 Underperform 5Y $4.51 -99.83% +83.65% +183.48 0 Comment
roth450 32.23 7/20/2010 Outperform NS $3.99 -99.81% +94.33% -194.14 0 Comment
EffinObama < 20 7/19/2010 Outperform 3Y $4.06 -99.82% +92.97% -192.78 0 Comment
thisyearslosers < 20 6/29/2010 Outperform 5Y $4.12 -99.82% +96.62% -196.43 0 Comment
startunderfive < 20 6/28/2010 Outperform 5Y $4.49 -99.83% +91.07% -190.90 0 Comment
institutionsdown 53.72 6/22/2010 Outperform 5Y $4.88 -99.85% +84.67% -184.52 0 Comment
obsoleteaccount < 20 6/21/2010 Outperform 5Y $4.91 -99.85% +85.14% -184.99 0 Comment
jroren 98.77 6/21/2010 Underperform 3M $5.36 -99.86% +81.88% +181.74 0 Comment
iddqkfyou < 20 5/11/2010 Outperform 5Y $6.30 -99.88% +78.80% -178.68 1 Comment
asitka 28.66 5/3/2010 Outperform 1Y $8.74 -99.91% +72.34% -172.25 0 Comment
Genomac 40.25 4/26/2010 Outperform 5Y $9.58 -99.92% +68.85% -168.77 0 Comment
HotDdogv2 < 20 4/26/2010 Outperform 5Y $9.58 -99.92% +68.85% -168.77 0 Comment
aliuce 31.23 4/23/2010 Outperform NS $9.53 -99.92% +69.64% -169.56 0 Comment
iamvoltron 24.32 4/22/2010 Outperform 5Y $8.47 -99.91% +71.72% -171.63 0 Comment
markantonythe3rd 31.04 4/20/2010 Outperform 5Y $8.21 -99.91% +70.60% -170.51 0 Comment
dashark44 94.69 4/19/2010 Outperform 5Y $7.81 -99.90% +73.21% -173.11 0 Comment
Powderiver < 20 4/12/2010 Outperform 5Y $7.94 -99.91% +71.84% -171.74 0 Comment
manjux < 20 4/1/2010 Underperform 3M $7.32 -99.90% +74.61% +174.51 0 Comment
blue2fire < 20 3/22/2010 Outperform 5Y $7.39 -99.90% +78.42% -178.32 0 Comment
StThomasMoreEsq2 97.73 12/29/2009 2/19/2010 Outperform 3M $9.89 -99.92% +82.52% -182.45 0 Comment
HasOrHasNot 27.57 1/28/2010 Outperform 3Y $10.04 -99.93% +86.68% -186.61 0 Comment
FreeMortal 29.17 1/20/2010 Outperform 5Y $10.34 -99.93% +81.19% -181.12 0 Comment
StGiannaMolla < 20 1/11/2010 Outperform 5Y $10.53 -99.93% +79.28% -179.21 0 Comment
Clockworker < 20 1/6/2010 Outperform 5Y $9.84 -99.92% +81.13% -181.05 0 Comment
TMFPlatoish 98.43 12/16/2009 Outperform 5Y $9.27 -99.92% +83.75% -183.66 0 Comment
chinneymartin 81.47 11/13/2009 Outperform 5Y $13.20 -99.94% +87.17% -187.12 0 Comment
wkcgx2 < 20 11/9/2009 Outperform 5Y $13.18 -99.94% +89.56% -189.50 0 Comment
outperformONLY < 20 10/19/2009 Outperform 5Y $19.49 -99.96% +88.63% -188.59 0 Comment
pennycruncher 54.32 10/19/2009 Outperform 5Y $19.49 -99.96% +88.63% -188.59 0 Comment
GIGManager < 20 10/8/2009 Outperform 3Y $19.24 -99.96% +92.69% -192.66 0 Comment
TotalStrange 97.53 8/12/2009 Outperform 1Y $14.58 -99.95% +105.19% -205.13 0 Comment
jddubya < 20 6/5/2009 Outperform 5Y $14.81 -99.95% +119.30% -219.25 0 Comment
TXmaverick < 20 6/2/2009 Underperform 3W $14.00 -99.95% +118.92% +218.86 1 Comment
marcet 71.63 5/28/2009 Outperform 5Y $13.26 -99.94% +128.68% -228.62 0 Comment
cwimbish 21.59 5/28/2009 Outperform 5Y $11.46 -99.93% +129.81% -229.75 1 Comment
theMovement 85.20 5/21/2009 Outperform 1Y $9.86 -99.92% +132.38% -232.30 0 Comment
unstoppablepeon < 20 10/27/2008 Underperform NS $6.01 -99.88% +144.04% +243.92 1 Comment
moonleg 24.38 10/22/2008 Underperform 1Y $6.45 -99.88% +126.35% +226.24 0 Comment
Chiownknee 78.47 10/20/2008 Outperform 5Y $8.28 -99.91% +119.05% -218.96 0 Comment
IWalker182 21.31 10/17/2008 Outperform NS $8.44 -99.91% +121.87% -221.78 0 Comment
wakoma < 20 10/8/2008 Outperform NS $12.80 -99.94% +116.43% -216.37 1 Comment
istilldontcare 96.71 9/18/2008 Outperform 5Y $17.34 -99.96% +81.51% -181.47 0 Comment
unotsomuch < 20 8/20/2008 Outperform 3Y $19.10 -99.96% +66.66% -166.62 0 Comment
ejtrains 53.28 8/11/2008 Outperform NS $20.00 -99.96% +63.95% -163.91 0 Comment
joetheboss 50.88 6/11/2008 Outperform 3Y $19.57 -99.96% +57.96% -157.92 1 Comment
Sqwii < 20 6/10/2008 Outperform 1Y $20.32 -99.96% +56.50% -156.46 1 Comment
floridabull33 60.86 5/22/2008 Outperform 3M $20.64 -99.96% +53.11% -153.07 0 Comment
GDragonsDad 59.43 5/7/2008 Outperform NS $19.04 -99.96% +51.23% -151.19 0 Comment
TexasGeoTech < 20 4/30/2008 Outperform 3M $19.04 -99.96% +52.53% -152.49 0 Comment
JCASS714 52.01 4/29/2008 Outperform 5Y $18.82 -99.96% +53.14% -153.10 0 Comment
tuckerjack 32.45 4/17/2008 Outperform 5Y $19.60 -99.96% +56.67% -156.63 0 Comment
greengal1 < 20 4/17/2008 Outperform 3Y $19.60 -99.96% +56.67% -156.63 1 Comment
ctnotebo 35.59 4/11/2008 Outperform 3Y $17.56 -99.96% +58.22% -158.17 0 Comment
louisianacoonie 22.31 3/31/2008 Outperform NS $17.95 -99.96% +61.57% -161.53 0 Comment
bengalmomof4 84.52 3/28/2008 Underperform 3M $17.78 -99.96% +60.44% +160.39 0 Comment
chad07gt < 20 3/27/2008 Outperform NS $17.78 -99.96% +60.23% -160.18 0 Comment
MoltenTofu < 20 3/14/2008 Outperform NS $17.34 -99.96% +61.49% -161.45 0 Comment
AgendaPacific 34.21 3/14/2008 Outperform 3Y $17.34 -99.96% +61.49% -161.45 0 Comment
ToeInsider 30.13 3/10/2008 Outperform NS $16.26 -99.95% +65.18% -165.13 0 Comment
altitudeaddict 31.12 2/28/2008 Outperform 5Y $17.94 -99.96% +56.24% -156.19 0 Comment
tritterup 56.98 2/26/2008 Outperform NS $18.36 -99.96% +55.27% -155.23 0 Comment
arindamd < 20 2/26/2008 Outperform 1Y $17.79 -99.96% +56.26% -156.22 1 Comment
dmgchess 66.63 2/20/2008 Outperform 1Y $17.66 -99.96% +60.02% -159.98 0 Comment
aalvarma < 20 2/20/2008 Outperform 1Y $17.66 -99.96% +60.02% -159.98 0 Comment
thetoxman 78.91 2/14/2008 Outperform 1Y $17.31 -99.96% +56.57% -156.52 0 Comment
thatguy99 31.88 2/5/2008 Outperform 5Y $17.79 -99.96% +57.73% -157.69 0 Comment
mopomi 65.25 1/24/2008 Outperform 5Y $18.76 -99.96% +59.79% -159.75 0 Comment
ATWDLimited < 20 1/23/2008 Outperform NS $18.34 -99.96% +65.16% -165.12 0 Comment
financeman101 < 20 1/17/2008 Outperform NS $16.85 -99.96% +60.99% -160.94 0 Comment
evreeland 28.29 1/16/2008 Outperform 1Y $16.25 -99.95% +56.55% -156.50 0 Comment
Obyss 56.38 12/31/2007 Outperform 3W $19.14 -99.96% +45.77% -145.73 0 Comment
Kenster35OR 42.86 12/24/2007 Outperform 1Y $20.20 -99.96% +44.08% -144.04 0 Comment
StockRakedotcom < 20 12/13/2007 Outperform NS $22.40 -99.97% +45.33% -145.30 0 Comment
everything4less 43.02 12/13/2007 Outperform 1Y $22.40 -99.97% +45.33% -145.30 0 Comment
beachlokal < 20 12/12/2007 Outperform 5Y $23.10 -99.97% +44.18% -144.15 0 Comment
WavingSpices < 20 12/5/2007 Outperform NS $22.10 -99.97% +45.39% -145.36 0 Comment
SaltyGenes 49.66 11/27/2007 Outperform 5Y $22.14 -99.97% +52.08% -152.04 0 Comment
apper < 20 11/21/2007 Outperform 5Y $22.58 -99.97% +51.67% -151.64 0 Comment
ProjectJack < 20 11/5/2007 Outperform 1Y $19.90 -99.96% +43.40% -143.37 0 Comment
IntenseSpider 88.17 10/25/2007 Outperform NS $22.86 -99.97% +43.47% -143.44 0 Comment
tv5cents 95.38 10/23/2007 Outperform 5Y $22.00 -99.97% +42.32% -142.28 0 Comment
JR9901 79.70 10/22/2007 Outperform 5Y $21.85 -99.97% +44.80% -144.76 0 Comment
Garranova 88.98 10/22/2007 Outperform NS $21.85 -99.97% +44.80% -144.76 0 Comment
cleveland503 81.30 10/15/2007 Outperform NS $24.60 -99.97% +37.94% -137.91 0 Comment
ATLDARK31 < 20 10/12/2007 Outperform 5Y $24.50 -99.97% +38.66% -138.63 0 Comment
Results 1 - 99 of 119 : 1 2 Next »

Featured Broker Partners


Advertisement